.
WxDataArchive / Data Records for 2011-11-10
2011-11-09 November 2011 2011-11-11

Data Records for Thursday, 10 November 2011

Time	Temp	Chill	HIndex	Humid	Dewpt	 Wind 	HiWind	WindDir	Rain 	Barom 
-----	----	-----	------	-----	-----	------	------	-------	-----	----- 
00:00	40.3	40.3	40.3	77	33.7	2	5	248	0.00	29.962 
00:05	40.3	40.3	40.3	77	33.7	2	5	248	0.00	29.962 
00:10	40.3	40.3	40.3	76	33.3	2	6	248	0.00	29.962 
00:15	40.3	40.3	40.3	76	33.3	2	6	248	0.00	29.966 
00:20	40.3	40.3	40.3	76	33.3	2	6	248	0.00	29.966 
00:25	40.3	40.3	40.3	76	33.3	3	5	248	0.00	29.966 
00:30	40.3	40.3	40.3	76	33.3	2	6	248	0.00	29.968 
00:35	40.3	40.3	40.3	76	33.3	3	6	248	0.00	29.968 
00:40	40.3	40.3	40.3	76	33.3	2	4	248	0.00	29.968 
00:45	40.3	40.3	40.3	77	33.7	2	5	248	0.00	29.971 
00:50	40.3	40.3	40.3	77	33.7	2	6	248	0.00	29.971 
00:55	40.3	40.3	40.3	77	33.7	3	6	248	0.00	29.971 
01:00	40.2	40.2	40.2	77	33.6	2	6	270	0.00	29.971 
01:05	40.2	40.2	40.2	77	33.6	2	4	270	0.00	29.971 
01:10	40.2	40.2	40.2	77	33.6	2	4	248	0.00	29.971 
01:15	40.2	40.2	40.2	77	33.6	2	6	248	0.00	29.974 
01:20	40.2	40.2	40.2	76	33.3	2	6	248	0.00	29.974 
01:25	40.2	40.2	40.2	72	31.9	1	4	248	0.00	29.974 
01:30	40.1	40.1	40.1	75	32.8	2	6	248	0.00	29.972 
01:35	40.1	40.1	40.1	75	32.8	1	4	270	0.00	29.972 
01:40	40.1	40.1	40.1	75	32.8	1	4	270	0.00	29.972 
01:45	39.8	39.8	39.8	74	32.2	1	4	270	0.00	29.975 
01:50	39.6	39.6	39.6	74	32.0	2	5	248	0.00	29.975 
01:55	39.3	39.3	39.3	74	31.7	3	9	248	0.00	29.975 
02:00	39.2	36.4	39.2	74	31.6	4	7	270	0.00	29.977 
02:05	38.9	38.9	38.9	74	31.3	2	5	248	0.00	29.977 
02:10	38.8	38.8	38.8	74	31.2	2	6	270	0.00	29.977 
02:15	38.5	38.5	38.5	74	30.9	1	4	270	0.00	29.983 
02:20	38.3	38.3	38.3	75	31.1	1	4	248	0.00	29.983 
02:25	38.2	38.2	38.2	75	31.0	0	2	248	0.00	29.983 
02:30	37.9	37.9	37.9	75	30.7	1	3	248	0.00	29.985 
02:35	37.8	37.8	37.8	76	30.9	2	6	248	0.00	29.985 
02:40	37.8	37.8	37.8	76	30.9	0	2	248	0.00	29.985 
02:45	37.6	37.6	37.6	77	31.1	1	3	248	0.00	29.985 
02:50	37.5	37.5	37.5	77	31.0	1	4	248	0.00	29.985 
02:55	37.3	37.3	37.3	77	30.8	0	3	248	0.00	29.985 
03:00	37.2	37.2	37.2	78	31.0	0	3	248	0.00	29.985 
03:05	37.2	37.2	37.2	78	31.0	0	2	248	0.00	29.985 
03:10	37.0	37.0	37.0	79	31.1	1	4	248	0.00	29.985 
03:15	37.0	37.0	37.0	79	31.1	0	1	248	0.00	29.988 
03:20	36.9	36.9	36.9	79	31.0	0	4	248	0.00	29.988 
03:25	36.8	36.8	36.8	79	30.9	0	2	248	0.00	29.988 
03:30	36.8	36.8	36.8	80	31.2	0	2	248	0.00	29.986 
03:35	36.6	36.6	36.6	80	31.0	0	3	248	0.00	29.986 
03:40	36.6	36.6	36.6	81	31.3	0	2	248	0.00	29.986 
03:45	36.5	36.5	36.5	81	31.2	0	3	248	0.00	29.980 
03:50	36.5	36.5	36.5	81	31.2	0	2	248	0.00	29.980 
03:55	36.3	36.3	36.3	81	31.0	0	2	248	0.00	29.980 
04:00	36.0	36.0	36.0	81	30.7	0	1	248	0.00	29.977 
04:05	35.9	35.9	35.9	82	31.0	0	2	248	0.00	29.977 
04:10	35.8	35.8	35.8	83	31.2	0	3	248	0.00	29.977 
04:15	35.6	35.6	35.6	83	31.0	0	2	248	0.00	29.984 
04:20	35.5	35.5	35.5	83	30.9	0	1	248	0.00	29.984 
04:25	35.3	35.3	35.3	84	31.0	0	1	248	0.00	29.984 
04:30	35.3	35.3	35.3	84	31.0	0	1	248	0.00	29.983 
04:35	35.2	35.2	35.2	85	31.2	0	3	248	0.00	29.983 
04:40	35.0	35.0	35.0	85	31.0	0	2	248	0.00	29.983 
04:45	34.9	34.9	34.9	85	30.9	0	2	248	0.00	29.980 
04:50	34.9	34.9	34.9	86	31.1	0	2	248	0.00	29.980 
04:55	34.7	34.7	34.7	86	30.9	0	1	248	0.00	29.980 
05:00	34.7	34.7	34.7	86	30.9	0	2	248	0.00	29.983 
05:05	34.7	34.7	34.7	86	30.9	0	2	248	0.00	29.983 
05:10	34.6	34.6	34.6	87	31.1	0	2	248	0.00	29.983 
05:15	34.6	34.6	34.6	87	31.1	0	1	248	0.00	29.981 
05:20	34.6	34.6	34.6	87	31.1	0	3	248	0.00	29.981 
05:25	34.4	34.4	34.4	87	30.9	0	2	248	0.00	29.981 
05:30	34.4	34.4	34.4	87	30.9	0	2	248	0.00	29.982 
05:35	34.4	34.4	34.4	87	30.9	0	2	248	0.00	29.982 
05:40	34.3	34.3	34.3	88	31.1	0	1	248	0.00	29.982 
05:45	34.3	34.3	34.3	88	31.1	0	2	248	0.00	29.981 
05:50	34.1	34.1	34.1	88	30.9	0	2	248	0.00	29.981 
05:55	34.1	34.1	34.1	88	30.9	0	3	248	0.00	29.981 
06:00	34.1	34.1	34.1	88	30.9	0	3	248	0.00	29.982 
06:05	34.0	34.0	34.0	88	30.8	0	4	248	0.00	29.982 
06:10	34.0	34.0	34.0	88	30.8	0	2	248	0.00	29.982 
06:15	34.0	34.0	34.0	88	30.8	0	2	248	0.00	29.982 
06:20	34.0	34.0	34.0	88	30.8	0	4	248	0.00	29.982 
06:25	34.0	34.0	34.0	88	30.8	0	2	248	0.00	29.982 
06:30	34.0	34.0	34.0	89	31.1	1	5	248	0.00	29.980 
06:35	34.0	34.0	34.0	89	31.1	0	3	248	0.00	29.980 
06:40	34.0	34.0	34.0	89	31.1	0	4	248	0.00	29.980 
06:45	34.0	34.0	34.0	89	31.1	1	5	248	0.00	29.976 
06:50	33.8	33.8	33.8	89	30.9	0	3	248	0.00	29.976 
06:55	33.8	33.8	33.8	89	30.9	0	2	248	0.00	29.976 
07:00	33.8	33.8	33.8	89	30.9	0	2	248	0.00	29.982 
07:05	33.8	33.8	33.8	89	30.9	1	3	248	0.00	29.982 
07:10	33.7	33.7	33.7	89	30.8	0	4	248	0.00	29.982 
07:15	33.7	33.7	33.7	89	30.8	0	2	248	0.00	29.983 
07:20	33.7	33.7	33.7	89	30.8	0	3	248	0.00	29.983 
07:25	33.7	33.7	33.7	89	30.8	0	4	248	0.00	29.983 
07:30	33.7	33.7	33.7	89	30.8	0	3	248	0.00	29.987 
07:35	33.7	33.7	33.7	89	30.8	0	2	248	0.00	29.987 
07:40	33.7	33.7	33.7	89	30.8	1	3	248	0.00	29.987 
07:45	33.7	33.7	33.7	89	30.8	1	3	248	0.00	29.992 
07:50	33.8	33.8	33.8	89	30.9	1	4	248	0.00	29.992 
07:55	34.0	34.0	34.0	88	30.8	2	5	248	0.00	29.992 
08:00	34.1	34.1	34.1	88	30.9	1	4	225	0.00	29.997 
08:05	34.4	34.4	34.4	88	31.2	1	7	248	0.00	29.997 
08:10	34.6	34.6	34.6	87	31.1	1	5	248	0.00	29.997 
08:15	34.7	34.7	34.7	86	30.9	2	6	248	0.00	30.000 
08:20	34.9	34.9	34.9	85	30.9	2	5	248	0.00	30.000 
08:25	35.2	35.2	35.2	84	30.9	2	6	248	0.00	30.000 
08:30	35.3	35.3	35.3	84	31.0	1	3	248	0.00	30.001 
08:35	35.5	35.5	35.5	83	30.9	2	6	248	0.00	30.001 
08:40	35.5	35.5	35.5	82	30.6	3	7	248	0.00	30.001 
08:45	35.6	35.6	35.6	81	30.4	2	5	248	0.00	30.001 
08:50	35.8	35.8	35.8	81	30.6	3	10	248	0.00	30.001 
08:55	35.9	35.9	35.9	79	30.0	3	6	248	0.00	30.001 
09:00	36.2	36.2	36.2	78	30.0	3	8	270	0.00	30.005 
09:05	36.3	36.3	36.3	77	29.8	2	5	248	0.00	30.005 
09:10	36.6	36.6	36.6	76	29.8	3	8	248	0.00	30.005 
09:15	36.9	36.9	36.9	75	29.7	3	6	248	0.00	30.001 
09:20	37.0	37.0	37.0	74	29.5	3	6	270	0.00	30.001 
09:25	37.3	37.3	37.3	73	29.5	3	6	248	0.00	30.001 
09:30	37.5	37.5	37.5	71	29.0	3	6	270	0.00	29.996 
09:35	37.6	37.6	37.6	71	29.1	3	5	248	0.00	29.996 
09:40	37.8	37.8	37.8	71	29.3	2	9	248	0.00	29.996 
09:45	37.9	37.9	37.9	69	28.7	3	10	248	0.00	29.992 
09:50	38.0	38.0	38.0	69	28.7	3	7	270	0.00	29.992 
09:55	38.3	38.3	38.3	70	29.4	2	5	248	0.00	29.992 
10:00	38.5	38.5	38.5	68	28.9	2	6	270	0.00	29.984 
10:05	38.8	38.8	38.8	68	29.2	3	7	248	0.00	29.984 
10:10	38.9	38.9	38.9	68	29.3	2	5	248	0.00	29.984 
10:15	39.2	39.2	39.2	67	29.2	2	6	248	0.00	29.981 
10:20	39.3	39.3	39.3	66	28.9	3	7	248	0.00	29.981 
10:25	39.5	39.5	39.5	65	28.7	3	6	248	0.00	29.981 
10:30	39.5	39.5	39.5	65	28.7	3	9	225	0.00	29.978 
10:35	39.6	39.6	39.6	64	28.4	3	11	248	0.00	29.978 
10:40	39.6	39.6	39.6	63	28.1	3	7	248	0.00	29.978 
10:45	39.8	39.8	39.8	63	28.2	3	7	248	0.00	29.978 
10:50	39.9	39.9	39.9	63	28.3	3	6	248	0.00	29.978 
10:55	40.2	40.2	40.2	62	28.2	2	6	248	0.00	29.978 
11:00	40.8	40.8	40.8	61	28.4	3	5	248	0.00	29.977 
11:05	41.1	41.1	41.1	60	28.3	3	6	248	0.00	29.977 
11:10	40.9	38.4	40.9	59	27.7	4	8	270	0.00	29.977 
11:15	41.1	41.1	41.1	58	27.5	3	7	270	0.00	29.977 
11:20	40.8	37.4	40.8	57	26.8	5	11	270	0.00	29.977 
11:25	40.5	40.5	40.5	57	26.5	3	6	292	0.00	29.977 
11:30	40.3	40.3	40.3	57	26.3	3	9	270	0.00	29.977 
11:35	40.1	40.1	40.1	55	25.2	3	7	248	0.00	29.977 
11:40	40.3	37.7	40.3	55	25.4	4	9	270	0.00	29.977 
11:45	40.8	40.8	40.8	57	26.8	2	5	248	0.00	29.969 
11:50	41.3	41.3	41.3	55	26.4	3	6	248	0.00	29.969 
11:55	41.9	41.9	41.9	54	26.5	2	5	248	0.00	29.969 
12:00	41.9	41.9	41.9	52	25.6	3	5	248	0.00	29.962 
12:05	41.6	39.2	41.6	51	24.8	4	7	270	0.00	29.962 
12:10	41.3	41.3	41.3	52	25.0	3	9	270	0.00	29.962 
12:15	41.1	41.1	41.1	52	24.8	3	5	248	0.00	29.961 
12:20	40.9	40.9	40.9	53	25.1	3	6	270	0.00	29.961 
12:25	41.3	41.3	41.3	52	25.0	3	6	270	0.00	29.961 
12:30	41.3	41.3	41.3	48	23.1	3	7	270	0.00	29.952 
12:35	41.5	41.5	41.5	48	23.3	3	7	270	0.00	29.952 
12:40	41.6	39.2	41.6	48	23.4	4	11	270	0.00	29.952 
12:45	41.5	39.1	41.5	48	23.3	4	7	270	0.00	29.947 
12:50	41.2	38.7	41.2	49	23.5	4	7	270	0.00	29.947 
12:55	41.5	39.1	41.5	48	23.3	4	11	270	0.00	29.947 
13:00	41.6	39.2	41.6	47	22.9	4	7	270	0.00	29.944 
13:05	41.6	39.2	41.6	47	22.9	4	7	270	0.00	29.944 
13:10	41.3	38.8	41.3	46	22.1	4	9	270	0.00	29.944 
13:15	41.2	41.2	41.2	48	23.0	3	6	248	0.00	29.944 
13:20	41.1	37.8	41.1	46	21.9	5	13	270	0.00	29.944 
13:25	40.8	38.2	40.8	49	23.1	4	7	248	0.00	29.944 
13:30	40.8	38.2	40.8	49	23.1	4	7	270	0.00	29.946 
13:35	40.8	38.2	40.8	50	23.6	4	10	270	0.00	29.946 
13:40	40.8	38.2	40.8	50	23.6	4	9	270	0.00	29.946 
13:45	40.6	38.0	40.6	50	23.4	4	10	270	0.00	29.945 
13:50	40.6	38.0	40.6	50	23.4	4	9	270	0.00	29.945 
13:55	40.6	37.2	40.6	50	23.4	5	12	270	0.00	29.945 
14:00	40.5	37.1	40.5	52	24.3	5	11	270	0.00	29.939 
14:05	40.5	37.9	40.5	52	24.3	4	9	270	0.00	29.939 
14:10	40.3	37.7	40.3	54	25.0	4	7	270	0.00	29.939 
14:15	40.5	37.9	40.5	54	25.2	4	8	270	0.00	29.945 
14:20	40.5	37.9	40.5	53	24.7	4	10	270	0.00	29.945 
14:25	40.5	40.5	40.5	54	25.2	3	6	248	0.00	29.945 
14:30	40.2	37.5	40.2	54	24.9	4	7	270	0.00	29.948 
14:35	39.9	37.2	39.9	55	25.1	4	9	270	0.00	29.948 
14:40	39.8	37.1	39.8	56	25.4	4	11	270	0.00	29.948 
14:45	39.6	39.6	39.6	57	25.6	3	7	270	0.00	29.949 
14:50	39.6	36.9	39.6	57	25.6	4	12	270	0.00	29.949 
14:55	39.9	39.9	39.9	57	25.9	3	7	270	0.00	29.949 
15:00	40.1	37.4	40.1	56	25.7	4	10	270	0.00	29.949 
15:05	39.9	37.2	39.9	57	25.9	4	7	270	0.00	29.949 
15:10	39.9	39.9	39.9	57	25.9	3	6	270	0.00	29.949 
15:15	39.8	39.8	39.8	57	25.8	3	7	270	0.00	29.951 
15:20	39.3	36.5	39.3	60	26.6	4	10	270	0.00	29.951 
15:25	38.0	34.1	38.0	69	28.7	5	10	270	0.00	29.951 
15:30	36.0	32.7	36.0	77	29.5	4	7	270	0.00	29.968 
15:35	35.2	35.2	35.2	82	30.3	2	6	248	0.00	29.968 
15:40	35.2	35.2	35.2	84	30.9	2	7	248	0.00	29.968 
15:45	35.6	35.6	35.6	85	31.5	2	6	248	0.00	29.967 
15:50	36.0	36.0	36.0	85	31.9	2	5	248	0.00	29.967 
15:55	36.3	36.3	36.3	84	31.9	2	6	248	0.00	29.967 
16:00	36.6	36.6	36.6	82	31.6	2	9	270	0.00	29.965 
16:05	37.0	37.0	37.0	82	32.0	1	4	248	0.00	29.965 
16:10	37.5	37.5	37.5	81	32.2	2	4	248	0.00	29.965 
16:15	37.6	37.6	37.6	77	31.1	3	6	270	0.00	29.964 
16:20	37.3	34.2	37.3	73	29.5	4	9	270	0.00	29.964 
16:25	37.3	37.3	37.3	73	29.5	3	7	248	0.00	29.964 
16:30	37.2	37.2	37.2	73	29.4	2	5	248	0.00	29.965 
16:35	37.0	37.0	37.0	71	28.5	3	7	248	0.00	29.965 
16:40	37.0	37.0	37.0	70	28.1	3	5	270	0.00	29.965 
16:45	37.2	37.2	37.2	69	28.0	3	7	270	0.00	29.964 
16:50	37.2	37.2	37.2	69	28.0	2	6	248	0.00	29.964 
16:55	37.0	37.0	37.0	67	27.1	3	6	270	0.00	29.964 
17:00	37.0	33.9	37.0	67	27.1	4	9	270	0.00	29.967 
17:05	37.0	37.0	37.0	67	27.1	3	6	270	0.00	29.967 
17:10	37.0	37.0	37.0	67	27.1	2	5	270	0.00	29.967 
17:15	37.0	37.0	37.0	67	27.1	3	6	270	0.00	29.971 
17:20	37.0	37.0	37.0	68	27.4	2	5	248	0.00	29.971 
17:25	36.9	36.9	36.9	67	27.0	3	6	248	0.00	29.971 
17:30	36.9	36.9	36.9	68	27.3	2	5	248	0.00	29.972 
17:35	36.8	36.8	36.8	68	27.2	3	6	248	0.00	29.972 
17:40	36.8	36.8	36.8	68	27.2	2	5	248	0.00	29.972 
17:45	36.5	36.5	36.5	68	27.0	2	6	248	0.00	29.974 
17:50	36.3	36.3	36.3	69	27.1	2	6	248	0.00	29.974 
17:55	36.2	36.2	36.2	69	27.0	2	6	270	0.00	29.974 
18:00	35.9	35.9	35.9	70	27.1	1	4	248	0.00	29.975 
18:05	35.8	35.8	35.8	71	27.3	1	4	248	0.00	29.975 
18:10	35.6	35.6	35.6	71	27.1	2	3	248	0.00	29.975 
18:15	35.6	35.6	35.6	71	27.1	2	5	248	0.00	29.980 
18:20	35.6	35.6	35.6	72	27.5	3	6	270	0.00	29.980 
18:25	35.5	35.5	35.5	72	27.4	2	5	248	0.00	29.980 
18:30	35.3	35.3	35.3	73	27.5	2	5	248	0.00	29.982 
18:35	35.3	35.3	35.3	73	27.5	2	5	248	0.00	29.982 
18:40	35.2	35.2	35.2	74	27.8	1	3	248	0.00	29.982 
18:45	35.0	35.0	35.0	75	27.9	1	5	248	0.00	29.987 
18:50	34.9	34.9	34.9	75	27.8	2	5	248	0.00	29.987 
18:55	34.7	34.7	34.7	76	27.9	1	4	270	0.00	29.987 
19:00	34.7	34.7	34.7	76	27.9	1	3	248	0.00	29.982 
19:05	34.6	34.6	34.6	76	27.8	1	4	248	0.00	29.982 
19:10	34.6	34.6	34.6	77	28.1	2	5	248	0.00	29.982 
19:15	34.6	34.6	34.6	77	28.1	1	5	248	0.00	29.982 
19:20	34.6	34.6	34.6	77	28.1	1	4	248	0.00	29.982 
19:25	34.6	34.6	34.6	77	28.1	2	7	248	0.00	29.982 
19:30	34.7	34.7	34.7	77	28.2	1	4	248	0.00	29.979 
19:35	34.7	34.7	34.7	78	28.6	1	4	248	0.00	29.979 
19:40	34.9	34.9	34.9	78	28.7	3	6	248	0.00	29.979 
19:45	34.9	34.9	34.9	77	28.4	2	6	248	0.00	29.978 
19:50	34.9	34.9	34.9	77	28.4	2	4	248	0.00	29.978 
19:55	34.9	34.9	34.9	78	28.7	1	4	248	0.00	29.978 
20:00	34.9	34.9	34.9	78	28.7	2	7	270	0.00	29.974 
20:05	34.9	34.9	34.9	78	28.7	2	4	270	0.00	29.974 
20:10	34.9	34.9	34.9	78	28.7	2	4	270	0.00	29.974 
20:15	35.0	35.0	35.0	78	28.8	2	4	248	0.00	29.970 
20:20	35.0	35.0	35.0	78	28.8	1	3	248	0.00	29.970 
20:25	35.0	35.0	35.0	79	29.2	1	4	248	0.00	29.970 
20:30	35.0	35.0	35.0	79	29.2	2	5	270	0.00	29.970 
20:35	35.0	35.0	35.0	79	29.2	1	4	248	0.00	29.970 
20:40	35.0	35.0	35.0	80	29.5	2	6	248	0.00	29.970 
20:45	35.0	35.0	35.0	80	29.5	2	7	248	0.00	29.970 
20:50	35.0	35.0	35.0	81	29.8	1	4	248	0.00	29.970 
20:55	35.0	35.0	35.0	81	29.8	2	5	270	0.00	29.970 
21:00	34.9	34.9	34.9	82	30.0	2	5	248	0.00	29.971 
21:05	34.6	34.6	34.6	84	30.3	1	3	248	0.00	29.971 
21:10	34.3	34.3	34.3	85	30.3	1	3	248	0.00	29.971 
21:15	34.1	34.1	34.1	86	30.4	1	3	248	0.00	29.971 
21:20	34.0	34.0	34.0	87	30.5	2	4	248	0.00	29.971 
21:25	33.8	33.8	33.8	88	30.6	1	3	248	0.00	29.971 
21:30	33.8	33.8	33.8	88	30.6	2	4	248	0.00	29.970 
21:35	33.8	33.8	33.8	89	30.9	2	4	270	0.00	29.970 
21:40	34.0	34.0	34.0	89	31.1	2	4	248	0.01	29.970 
21:45	34.1	34.1	34.1	90	31.5	2	4	270	0.00	29.969 
21:50	34.1	34.1	34.1	90	31.5	2	6	270	0.00	29.969 
21:55	34.1	34.1	34.1	90	31.5	2	5	248	0.00	29.969 
22:00	34.3	34.3	34.3	90	31.7	2	6	270	0.00	29.970 
22:05	34.3	34.3	34.3	90	31.7	2	5	248	0.00	29.970 
22:10	34.3	34.3	34.3	90	31.7	3	6	248	0.00	29.970 
22:15	34.4	34.4	34.4	90	31.8	2	5	270	0.00	29.970 
22:20	34.4	34.4	34.4	89	31.5	3	5	270	0.00	29.970 
22:25	34.6	34.6	34.6	89	31.7	3	6	270	0.00	29.970 
22:30	34.6	34.6	34.6	89	31.7	2	4	270	0.00	29.970 
22:35	34.4	34.4	34.4	89	31.5	2	4	270	0.00	29.970 
22:40	34.4	34.4	34.4	89	31.5	2	5	248	0.00	29.970 
22:45	34.4	34.4	34.4	89	31.5	3	6	270	0.00	29.973 
22:50	34.4	34.4	34.4	89	31.5	2	4	270	0.00	29.973 
22:55	34.6	34.6	34.6	90	32.0	2	5	270	0.00	29.973 
23:00	34.6	34.6	34.6	90	32.0	3	6	270	0.00	29.966 
23:05	34.7	34.7	34.7	89	31.8	3	5	270	0.00	29.966 
23:10	34.7	34.7	34.7	89	31.8	3	6	270	0.00	29.966 
23:15	34.7	34.7	34.7	89	31.8	2	5	270	0.00	29.967 
23:20	34.7	34.7	34.7	89	31.8	1	4	270	0.01	29.967 
23:25	34.7	34.7	34.7	89	31.8	2	4	270	0.00	29.967 
23:30	34.7	34.7	34.7	89	31.8	2	6	270	0.00	29.968 
23:35	34.7	34.7	34.7	89	31.8	3	6	270	0.00	29.968 
23:40	34.7	34.7	34.7	89	31.8	2	4	248	0.00	29.968 
23:45	34.6	34.6	34.6	89	31.7	2	4	270	0.00	29.967 
23:50	34.6	34.6	34.6	89	31.7	1	3	270	0.00	29.967 
23:55	34.6	34.6	34.6	88	31.4	3	6	270	0.00	29.967 

CoCoRaHS
IN-AL-39
A2 Web Hosting
Creative Commons License
GoDaddy
search engine by freefind advanced

loaded 2018-11-17 06:04:41 • last modified 2010-11-18 10:43:29
Privacy PolicyDisclaimer
• wx.awcolley.com is powered by PmWiki v.2002016 •
• all content (unless otherwise noted) © 2018 A W Colley